Time;durP1;ratioP1;P1;durP2;ratioP2;P2;SDS_P1;SDS_P2;PMS_P1;PMS_P2;Temp;Humidity;BMP_temperature;BMP_pressure;BME280_temperature;BME280_humidity;BME280_pressure;Samples;Min_cycle;Max_cycle;Signal;HPM_P1;HPM_P2
2022/01/12 00:00:54;;;;;;;;;;;-5.70;99.90;;;;;;2082137;28;20303;-73
2022/01/12 00:01:59;;;;;;;;;;;-5.70;99.90;;;;;;2090373;28;19913;-73
2022/01/12 00:02:59;;;;;;;;;;;-5.70;99.90;;;;;;2089086;28;19993;-73
2022/01/12 00:04:00;;;;;;;;;;;-5.80;99.90;;;;;;2090243;28;19920;-73
2022/01/12 00:05:00;;;;;;;;;;;-5.80;99.90;;;;;;2090508;28;20330;-72
2022/01/12 00:06:03;;;;;;;;;;;-5.80;99.90;;;;;;2098462;28;19912;-73
2022/01/12 00:07:03;;;;;;;;;;;-5.70;99.90;;;;;;2090138;28;19952;-72
2022/01/12 00:08:04;;;;;;;;;;;-5.70;99.90;;;;;;2098566;28;19912;-72
2022/01/12 00:09:07;;;;;;;;;;;-5.80;99.90;;;;;;2106971;28;19938;-73
2022/01/12 00:10:08;;;;;;;;;;;-5.80;99.90;;;;;;2081814;28;19913;-72
2022/01/12 00:11:09;;;;;;;;;;;-5.80;99.90;;;;;;2074248;28;20300;-72
2022/01/12 00:12:10;;;;;;;;;;;-5.80;99.90;;;;;;2081871;28;20007;-73
2022/01/12 00:13:10;;;;;;;;;;;-5.90;99.90;;;;;;2090365;28;19912;-73
2022/01/12 00:14:11;;;;;;;;;;;-5.90;99.90;;;;;;2090118;28;20356;-72
2022/01/12 00:15:13;;;;;;;;;;;-5.90;99.90;;;;;;2089920;28;19916;-73
2022/01/12 00:16:14;;;;;;;;;;;-5.90;99.90;;;;;;2098319;28;20376;-74
2022/01/12 00:17:14;;;;;;;;;;;-6.00;99.90;;;;;;2098360;28;19993;-73
2022/01/12 00:18:15;;;;;;;;;;;-6.00;99.90;;;;;;2090629;28;20269;-72
2022/01/12 00:19:16;;;;;;;;;;;-6.00;99.90;;;;;;2090935;28;19905;-72
2022/01/12 00:20:16;;;;;;;;;;;-6.10;99.90;;;;;;2090851;28;20364;-72
2022/01/12 00:21:17;;;;;;;;;;;-6.10;99.90;;;;;;2090706;28;19909;-73
2022/01/12 00:22:18;;;;;;;;;;;-6.20;99.90;;;;;;2081544;28;19906;-71
2022/01/12 00:23:19;;;;;;;;;;;-6.20;99.90;;;;;;2073625;28;20010;-72
2022/01/12 00:24:19;;;;;;;;;;;-6.20;99.90;;;;;;2090041;28;19912;-72
2022/01/12 00:26:38;;;;;;;;;;;-6.30;99.90;;;;;;2090666;28;19909;-72
2022/01/12 00:33:09;;;;;;;;;;;-6.40;99.90;;;;;;2090563;28;19913;-72
2022/01/12 00:34:10;;;;;;;;;;;-6.40;99.90;;;;;;2090627;28;19962;-72
2022/01/12 00:35:11;;;;;;;;;;;-6.40;99.90;;;;;;2089843;28;19927;-73
2022/01/12 00:36:11;;;;;;;;;;;-6.40;99.90;;;;;;2090146;28;19905;-72
2022/01/12 00:37:12;;;;;;;;;;;-6.30;99.90;;;;;;2090495;28;19912;-72
2022/01/12 00:38:14;;;;;;;;;;;-6.30;99.90;;;;;;2090313;28;19923;-71
2022/01/12 00:39:15;;;;;;;;;;;-6.30;99.90;;;;;;2090007;28;19958;-72
2022/01/12 00:40:15;;;;;;;;;;;-6.40;99.90;;;;;;2081693;28;19955;-71
2022/01/12 00:41:17;;;;;;;;;;;-6.50;99.90;;;;;;2089868;28;19958;-73
2022/01/12 00:42:22;;;;;;;;;;;-6.50;99.90;;;;;;2098125;28;19955;-71
2022/01/12 00:43:26;;;;;;;;;;;-6.50;99.90;;;;;;2097642;28;20293;-72
2022/01/12 00:44:34;;;;;;;;;;;-6.50;99.90;;;;;;2098072;28;19905;-71
2022/01/12 00:45:42;;;;;;;;;;;-6.40;99.90;;;;;;2097740;28;19912;-71
2022/01/12 00:46:42;;;;;;;;;;;-6.40;99.90;;;;;;2090340;28;19916;-71
2022/01/12 00:47:43;;;;;;;;;;;-6.40;99.90;;;;;;2089603;28;19913;-71
2022/01/12 00:48:43;;;;;;;;;;;-6.50;99.90;;;;;;2098181;28;19912;-72
2022/01/12 00:49:44;;;;;;;;;;;-6.50;99.90;;;;;;2106454;28;19918;-72
2022/01/12 00:50:46;;;;;;;;;;;-6.50;99.90;;;;;;2090410;28;19913;-71
2022/01/12 00:51:47;;;;;;;;;;;-6.50;99.90;;;;;;2089838;28;19966;-71
2022/01/12 00:52:48;;;;;;;;;;;-6.50;99.90;;;;;;2089653;28;19939;-71
2022/01/12 00:53:48;;;;;;;;;;;-6.50;99.90;;;;;;2090519;28;19920;-72
2022/01/12 00:54:49;;;;;;;;;;;-6.40;99.90;;;;;;2090396;28;19920;-71
2022/01/12 00:55:50;;;;;;;;;;;-6.40;99.90;;;;;;2090469;28;19912;-72
2022/01/12 00:56:50;;;;;;;;;;;-6.40;99.90;;;;;;2089664;28;19913;-73
2022/01/12 00:57:51;;;;;;;;;;;-6.40;99.90;;;;;;2081323;28;19917;-72
2022/01/12 00:58:52;;;;;;;;;;;-6.30;99.90;;;;;;2090008;28;19952;-72
2022/01/12 00:59:53;;;;;;;;;;;-6.30;99.90;;;;;;2090305;28;19913;-72
2022/01/12 01:00:53;;;;;;;;;;;-6.20;99.90;;;;;;2090455;28;19939;-71
2022/01/12 01:01:55;;;;;;;;;;;-6.10;99.90;;;;;;2089852;28;19912;-72
2022/01/12 01:02:56;;;;;;;;;;;-6.00;99.90;;;;;;2073472;28;19979;-72
2022/01/12 01:03:56;;;;;;;;;;;-6.00;99.90;;;;;;2081537;28;20387;-73
2022/01/12 01:04:57;;;;;;;;;;;-5.90;99.90;;;;;;2097877;28;20007;-72
2022/01/12 01:05:59;;;;;;;;;;;-5.90;99.90;;;;;;2090401;28;19905;-72
2022/01/12 01:06:59;;;;;;;;;;;-6.00;99.90;;;;;;2089567;28;19912;-72
2022/01/12 01:08:01;;;;;;;;;;;-5.90;99.90;;;;;;2089761;28;19913;-72
2022/01/12 01:09:03;;;;;;;;;;;-5.90;99.90;;;;;;2089665;28;20396;-72
2022/01/12 01:10:06;;;;;;;;;;;-5.90;99.90;;;;;;2089758;28;19917;-72
2022/01/12 01:11:07;;;;;;;;;;;-5.80;99.90;;;;;;2090485;28;19905;-72
2022/01/12 01:12:08;;;;;;;;;;;-5.80;99.90;;;;;;2089633;28;19948;-72
2022/01/12 01:13:08;;;;;;;;;;;-5.70;99.90;;;;;;2089972;28;19909;-72
2022/01/12 01:14:15;;;;;;;;;;;-5.70;99.90;;;;;;2090356;28;19912;-72
2022/01/12 01:15:19;;;;;;;;;;;-5.60;99.90;;;;;;2088862;28;20292;-72
2022/01/12 01:16:25;;;;;;;;;;;-5.60;99.90;;;;;;2090679;28;19909;-72
2022/01/12 01:25:32;;;;;;;;;;;-5.50;99.90;;;;;;2089998;28;20289;-72
2022/01/12 01:26:33;;;;;;;;;;;-5.50;99.90;;;;;;2090180;28;19905;-71
2022/01/12 01:27:33;;;;;;;;;;;-5.60;99.90;;;;;;2089577;28;20307;-70
2022/01/12 01:28:34;;;;;;;;;;;-5.60;99.90;;;;;;2089700;28;19948;-70
2022/01/12 01:29:34;;;;;;;;;;;-5.60;99.90;;;;;;2090177;28;19954;-70
2022/01/12 01:30:37;;;;;;;;;;;-5.60;99.90;;;;;;2090167;28;19912;-71
2022/01/12 01:31:39;;;;;;;;;;;-5.50;99.90;;;;;;2089722;28;19974;-72
2022/01/12 01:32:41;;;;;;;;;;;-5.40;99.90;;;;;;2081489;28;20016;-71
2022/01/12 01:33:42;;;;;;;;;;;-5.30;99.90;;;;;;2089697;28;20019;-71
2022/01/12 01:34:46;;;;;;;;;;;-5.20;99.90;;;;;;2089900;28;19913;-71
2022/01/12 01:35:53;;;;;;;;;;;-5.30;99.90;;;;;;2090029;28;20303;-71
2022/01/12 01:36:56;;;;;;;;;;;-5.30;99.90;;;;;;2089486;28;19948;-71
2022/01/12 01:37:59;;;;;;;;;;;-5.30;99.90;;;;;;2082104;28;19952;-72
2022/01/12 01:39:00;;;;;;;;;;;-5.30;99.90;;;;;;2089619;28;19913;-71
2022/01/12 01:40:01;;;;;;;;;;;-5.30;99.90;;;;;;2090094;28;19957;-71
2022/01/12 01:41:02;;;;;;;;;;;-5.20;99.90;;;;;;2089447;28;19947;-72
2022/01/12 01:42:08;;;;;;;;;;;-5.10;99.90;;;;;;2089479;28;19913;-71
2022/01/12 01:43:19;;;;;;;;;;;-5.00;99.90;;;;;;2089597;28;19905;-71
2022/01/12 01:53:34;;;;;;;;;;;-4.80;99.90;;;;;;2097732;28;20350;-71
2022/01/12 01:54:34;;;;;;;;;;;-4.70;99.90;;;;;;2086958;28;19905;-71
2022/01/12 01:55:35;;;;;;;;;;;-4.70;99.90;;;;;;2081118;28;19905;-71
2022/01/12 01:56:35;;;;;;;;;;;-4.60;99.90;;;;;;2089380;28;19905;-71
2022/01/12 01:57:37;;;;;;;;;;;-4.60;99.90;;;;;;2089356;28;19905;-72
2022/01/12 01:58:38;;;;;;;;;;;-4.60;99.90;;;;;;2089192;28;19917;-72
2022/01/12 01:59:38;;;;;;;;;;;-4.50;99.90;;;;;;2097634;28;20387;-71
2022/01/12 02:00:39;;;;;;;;;;;-4.40;99.90;;;;;;2097909;28;20427;-71
2022/01/12 02:01:40;;;;;;;;;;;-4.50;99.90;;;;;;2081787;28;19913;-71
2022/01/12 02:02:43;;;;;;;;;;;-4.50;99.90;;;;;;2081699;28;19905;-71
2022/01/12 02:03:44;;;;;;;;;;;-4.40;99.90;;;;;;2089610;28;19920;-71
2022/01/12 02:04:45;;;;;;;;;;;-4.40;99.90;;;;;;2089298;28;19909;-71
2022/01/12 02:05:46;;;;;;;;;;;-4.30;99.90;;;;;;2097800;28;19913;-71
2022/01/12 02:06:46;;;;;;;;;;;-4.30;99.90;;;;;;2097726;28;20003;-71
2022/01/12 02:07:47;;;;;;;;;;;-4.20;99.90;;;;;;2081832;28;20300;-71
2022/01/12 02:08:48;;;;;;;;;;;-4.20;99.90;;;;;;2081885;28;19913;-71
2022/01/12 02:09:48;;;;;;;;;;;-4.10;99.90;;;;;;2081816;28;19913;-71
2022/01/12 02:10:53;;;;;;;;;;;-4.10;99.90;;;;;;2081805;28;20280;-71
2022/01/12 02:11:54;;;;;;;;;;;-4.10;99.90;;;;;;2089381;28;19946;-71
2022/01/12 02:12:55;;;;;;;;;;;-4.10;99.90;;;;;;2089454;28;19909;-72
2022/01/12 02:13:55;;;;;;;;;;;-4.10;99.90;;;;;;2089548;28;19964;-71
2022/01/12 02:14:57;;;;;;;;;;;-4.10;99.90;;;;;;2097497;28;19920;-72
2022/01/12 02:15:58;;;;;;;;;;;-4.10;99.90;;;;;;2097653;28;19959;-71
2022/01/12 02:17:14;;;;;;;;;;;-4.10;99.90;;;;;;2089196;28;19905;-71
2022/01/12 02:18:21;;;;;;;;;;;-4.10;99.90;;;;;;2081010;28;19925;-71
2022/01/12 02:20:13;;;;;;;;;;;-4.10;99.90;;;;;;2092427;28;19905;-71
2022/01/12 02:36:23;;;;;;;;;;;-3.70;99.90;;;;;;2091052;28;19917;-72
2022/01/12 02:40:05;;;;;;;;;;;-3.70;99.90;;;;;;2082803;28;19906;-73
2022/01/12 02:41:06;;;;;;;;;;;-3.80;99.90;;;;;;2085677;28;19927;-71
2022/01/12 02:42:07;;;;;;;;;;;-3.70;99.90;;;;;;2090897;28;19913;-71
2022/01/12 02:50:42;;;;;;;;;;;-3.40;99.90;;;;;;2083538;28;20360;-71
2022/01/12 02:54:30;;;;;;;;;;;-3.40;99.90;;;;;;2083303;28;19906;-71
2022/01/12 02:55:32;;;;;;;;;;;-3.40;99.90;;;;;;2090801;28;20376;-72
2022/01/12 02:56:34;;;;;;;;;;;-3.40;99.90;;;;;;2090537;28;20420;-71
2022/01/12 02:57:35;;;;;;;;;;;-3.40;99.90;;;;;;2090765;28;19937;-71
2022/01/12 02:58:36;;;;;;;;;;;-3.30;99.90;;;;;;2099041;28;19920;-71
2022/01/12 02:59:40;;;;;;;;;;;-3.30;99.90;;;;;;2098775;28;19962;-72
2022/01/12 03:01:14;;;;;;;;;;;-3.40;99.90;;;;;;2082641;28;19906;-71
2022/01/12 03:02:29;;;;;;;;;;;-3.30;99.90;;;;;;2082724;28;19917;-72
2022/01/12 03:03:33;;;;;;;;;;;-3.30;99.90;;;;;;2090860;28;19909;-72
2022/01/12 03:04:35;;;;;;;;;;;-3.30;99.90;;;;;;2090327;28;19913;-72
2022/01/12 03:05:46;;;;;;;;;;;-3.40;99.90;;;;;;2082610;28;19948;-71
2022/01/12 03:06:47;;;;;;;;;;;-3.30;99.90;;;;;;2082435;28;19920;-70
2022/01/12 03:07:47;;;;;;;;;;;-3.30;99.90;;;;;;2090832;28;19929;-70
2022/01/12 03:08:49;;;;;;;;;;;-3.30;99.90;;;;;;2090512;28;20370;-71
2022/01/12 03:09:50;;;;;;;;;;;-3.30;99.90;;;;;;2099153;28;19931;-71
2022/01/12 03:10:50;;;;;;;;;;;-3.30;99.90;;;;;;2098839;28;20036;-70
2022/01/12 03:11:51;;;;;;;;;;;-3.30;99.90;;;;;;2083061;28;19912;-70
2022/01/12 03:12:51;;;;;;;;;;;-3.50;99.90;;;;;;2090729;28;19935;-72
2022/01/12 03:13:52;;;;;;;;;;;-3.50;99.90;;;;;;2090696;28;19913;-71
2022/01/12 03:14:53;;;;;;;;;;;-3.40;99.90;;;;;;2082757;28;19929;-71
2022/01/12 03:15:54;;;;;;;;;;;-3.40;99.90;;;;;;2083118;28;19912;-70
2022/01/12 03:16:54;;;;;;;;;;;-3.50;99.90;;;;;;2090647;28;19917;-71
2022/01/12 03:17:55;;;;;;;;;;;-3.50;99.90;;;;;;2098862;28;19904;-72
2022/01/12 03:18:58;;;;;;;;;;;-3.50;99.90;;;;;;2098969;28;19998;-71
2022/01/12 03:19:59;;;;;;;;;;;-3.40;99.90;;;;;;2090777;28;19905;-71
2022/01/12 03:20:59;;;;;;;;;;;-3.40;99.90;;;;;;2090686;28;19948;-72
2022/01/12 03:22:00;;;;;;;;;;;-3.30;99.90;;;;;;2090650;28;19905;-71
2022/01/12 03:23:01;;;;;;;;;;;-3.20;99.90;;;;;;2090444;28;20323;-72
2022/01/12 03:24:03;;;;;;;;;;;-3.20;99.90;;;;;;2090699;28;19912;-71
2022/01/12 03:25:04;;;;;;;;;;;-3.20;99.90;;;;;;2098727;28;19912;-72
2022/01/12 03:26:05;;;;;;;;;;;-3.10;99.90;;;;;;2098723;28;19904;-71
2022/01/12 03:27:06;;;;;;;;;;;-3.10;99.90;;;;;;2090529;28;19905;-71
2022/01/12 03:28:07;;;;;;;;;;;-3.10;99.90;;;;;;2090641;28;19905;-71
2022/01/12 03:29:08;;;;;;;;;;;-3.10;99.90;;;;;;2090628;28;19905;-72
2022/01/12 03:30:09;;;;;;;;;;;-3.10;99.90;;;;;;2090608;28;19912;-73
2022/01/12 03:31:18;;;;;;;;;;;-3.10;99.90;;;;;;2090519;28;19909;-71
2022/01/12 03:32:25;;;;;;;;;;;-3.10;99.90;;;;;;2089430;28;19908;-72
2022/01/12 03:34:37;;;;;;;;;;;-3.30;99.90;;;;;;2088626;28;19920;-71
2022/01/12 03:36:11;;;;;;;;;;;-3.20;99.90;;;;;;2082817;28;19995;-71
2022/01/12 03:37:38;;;;;;;;;;;-3.20;99.90;;;;;;2083221;28;20001;-71
2022/01/12 03:38:37;;;;;;;;;;;-3.10;99.90;;;;;;2082054;28;19917;-72
2022/01/12 03:39:37;;;;;;;;;;;-3.00;99.90;;;;;;2082851;28;19913;-72
2022/01/12 03:40:38;;;;;;;;;;;-3.00;99.90;;;;;;2082827;28;19912;-71
2022/01/12 03:41:41;;;;;;;;;;;-3.10;99.90;;;;;;2082775;28;19936;-71
2022/01/12 03:42:42;;;;;;;;;;;-3.00;99.90;;;;;;2090387;28;20291;-71
2022/01/12 03:43:43;;;;;;;;;;;-3.00;99.90;;;;;;2090431;28;19913;-72
2022/01/12 03:44:44;;;;;;;;;;;-3.10;99.90;;;;;;2098891;28;20267;-72
2022/01/12 03:45:47;;;;;;;;;;;-3.10;99.90;;;;;;2098837;28;20015;-72
2022/01/12 03:46:50;;;;;;;;;;;-3.10;99.90;;;;;;2082789;28;19913;-71
2022/01/12 03:47:51;;;;;;;;;;;-3.10;99.90;;;;;;2090431;28;19913;-71
2022/01/12 03:48:51;;;;;;;;;;;-3.10;99.90;;;;;;2089961;28;20367;-72
2022/01/12 03:49:52;;;;;;;;;;;-3.20;99.90;;;;;;2090951;28;19917;-72
2022/01/12 03:50:55;;;;;;;;;;;-3.30;99.90;;;;;;2090396;28;20402;-72
2022/01/12 03:51:55;;;;;;;;;;;-3.30;99.90;;;;;;2090557;28;19912;-72
2022/01/12 03:52:56;;;;;;;;;;;-3.30;99.90;;;;;;2090993;28;19905;-72
2022/01/12 03:53:57;;;;;;;;;;;-3.40;99.90;;;;;;2106861;28;19955;-71
2022/01/12 03:54:58;;;;;;;;;;;-3.40;99.90;;;;;;2098522;28;19988;-72
2022/01/12 03:55:58;;;;;;;;;;;-3.40;99.90;;;;;;2098569;28;19904;-72
2022/01/12 03:56:59;;;;;;;;;;;-3.60;99.90;;;;;;2106900;28;19904;-72
2022/01/12 03:58:00;;;;;;;;;;;-3.60;99.90;;;;;;2098731;28;19908;-71
2022/01/12 03:59:01;;;;;;;;;;;-3.60;99.90;;;;;;2090923;28;20348;-72
2022/01/12 04:00:04;;;;;;;;;;;-3.70;99.90;;;;;;2090300;28;19951;-72
2022/01/12 04:01:05;;;;;;;;;;;-3.60;99.90;;;;;;2090341;28;19904;-73
2022/01/12 04:02:05;;;;;;;;;;;-3.50;99.90;;;;;;2090253;28;19905;-72
2022/01/12 04:03:07;;;;;;;;;;;-3.40;99.90;;;;;;2081932;28;19913;-72
2022/01/12 04:04:16;;;;;;;;;;;-3.40;99.90;;;;;;2098747;28;19904;-72
2022/01/12 04:05:39;;;;;;;;;;;-3.30;99.90;;;;;;2097133;28;19983;-72
2022/01/12 04:09:18;;;;;;;;;;;-3.20;99.90;;;;;;2090808;28;19905;-71
2022/01/12 04:10:19;;;;;;;;;;;-3.10;99.90;;;;;;2090810;28;19904;-72
2022/01/12 04:11:20;;;;;;;;;;;-3.20;99.90;;;;;;2090822;28;19911;-71
2022/01/12 04:12:21;;;;;;;;;;;-3.20;99.90;;;;;;2090343;28;19996;-72
2022/01/12 04:13:23;;;;;;;;;;;-3.30;99.90;;;;;;2090285;28;20287;-72
2022/01/12 04:14:24;;;;;;;;;;;-3.20;99.90;;;;;;2090392;28;19909;-72
2022/01/12 04:15:24;;;;;;;;;;;-3.30;99.90;;;;;;2089950;28;19912;-71
2022/01/12 04:16:25;;;;;;;;;;;-3.50;99.90;;;;;;2091031;28;19951;-70
2022/01/12 04:17:26;;;;;;;;;;;-3.50;99.90;;;;;;2090096;28;19905;-71
2022/01/12 04:18:26;;;;;;;;;;;-3.60;99.90;;;;;;2090242;28;20315;-71
2022/01/12 04:19:27;;;;;;;;;;;-3.70;99.90;;;;;;2090831;28;19938;-71
2022/01/12 04:20:29;;;;;;;;;;;-3.70;99.90;;;;;;2090648;28;19904;-71
2022/01/12 04:21:31;;;;;;;;;;;-3.60;99.90;;;;;;2090711;28;19962;-72
2022/01/12 04:23:51;;;;;;;;;;;-3.60;99.90;;;;;;2090384;28;20388;-71
2022/01/12 04:24:51;;;;;;;;;;;-3.60;99.90;;;;;;2090923;28;19913;-73
2022/01/12 04:26:10;;;;;;;;;;;-3.50;99.90;;;;;;2091175;28;19905;-71
2022/01/12 04:27:10;;;;;;;;;;;-3.40;99.90;;;;;;2090201;28;19905;-71
2022/01/12 04:28:11;;;;;;;;;;;-3.40;99.90;;;;;;2099325;28;19919;-72
2022/01/12 04:29:13;;;;;;;;;;;-3.50;99.90;;;;;;2098425;28;19963;-73
2022/01/12 04:30:14;;;;;;;;;;;-3.60;99.90;;;;;;2081890;28;19920;-71
2022/01/12 04:31:14;;;;;;;;;;;-3.70;99.90;;;;;;2090277;28;19952;-72
2022/01/12 04:32:15;;;;;;;;;;;-3.80;99.90;;;;;;2090512;28;19920;-72
2022/01/12 04:33:17;;;;;;;;;;;-3.90;99.90;;;;;;2090594;28;19988;-71
2022/01/12 04:34:18;;;;;;;;;;;-3.90;99.90;;;;;;2089989;28;19912;-71
2022/01/12 04:35:23;;;;;;;;;;;-3.80;99.90;;;;;;2081573;28;19975;-71
2022/01/12 04:36:24;;;;;;;;;;;-3.70;99.90;;;;;;2082495;28;19917;-71
2022/01/12 04:37:25;;;;;;;;;;;-3.60;99.90;;;;;;2082424;28;19912;-71
2022/01/12 04:38:30;;;;;;;;;;;-3.60;99.90;;;;;;2081658;28;20007;-72
2022/01/12 04:39:30;;;;;;;;;;;-3.50;99.90;;;;;;2082152;28;19913;-71
2022/01/12 04:40:33;;;;;;;;;;;-3.60;99.90;;;;;;2090175;28;20284;-71
2022/01/12 04:41:36;;;;;;;;;;;-3.70;99.90;;;;;;2089906;28;19913;-71
2022/01/12 04:42:36;;;;;;;;;;;-3.80;99.90;;;;;;2089972;28;19913;-71
2022/01/12 04:43:38;;;;;;;;;;;-3.80;99.90;;;;;;2089897;28;19987;-71
2022/01/12 04:44:44;;;;;;;;;;;-3.80;99.90;;;;;;2081604;28;19999;-71
2022/01/12 04:47:04;;;;;;;;;;;-3.70;99.90;;;;;;2089606;28;20308;-71
2022/01/12 04:50:10;;;;;;;;;;;-3.70;99.90;;;;;;2089743;28;19916;-71
2022/01/12 04:51:10;;;;;;;;;;;-3.70;99.90;;;;;;2089651;28;19912;-71
2022/01/12 04:52:11;;;;;;;;;;;-3.80;99.90;;;;;;2090191;28;19912;-71
2022/01/12 04:53:13;;;;;;;;;;;-3.80;99.90;;;;;;2090240;28;20423;-71
2022/01/12 04:54:14;;;;;;;;;;;-3.80;99.90;;;;;;2089474;28;19905;-71
2022/01/12 04:55:15;;;;;;;;;;;-3.70;99.90;;;;;;2081254;28;19905;-71
2022/01/12 04:56:15;;;;;;;;;;;-3.70;99.90;;;;;;2097949;28;19913;-71
2022/01/12 04:57:16;;;;;;;;;;;-3.70;99.90;;;;;;2106255;28;19920;-71
2022/01/12 04:58:17;;;;;;;;;;;-3.70;99.90;;;;;;2090308;28;19917;-71
2022/01/12 04:59:17;;;;;;;;;;;-3.70;99.90;;;;;;2089832;28;20447;-71
2022/01/12 05:00:18;;;;;;;;;;;-3.70;99.90;;;;;;2089781;28;19913;-71
2022/01/12 05:01:25;;;;;;;;;;;-3.60;99.90;;;;;;2090246;28;19917;-71
2022/01/12 05:07:28;;;;;;;;;;;-3.80;99.90;;;;;;2090206;28;19975;-71
2022/01/12 05:13:11;;;;;;;;;;;-3.60;99.90;;;;;;2090704;28;20386;-72
2022/01/12 05:14:12;;;;;;;;;;;-3.50;99.90;;;;;;2090859;28;20003;-71
2022/01/12 05:15:20;;;;;;;;;;;-3.50;99.90;;;;;;2090938;28;19912;-71
2022/01/12 05:16:21;;;;;;;;;;;-3.50;99.90;;;;;;2090711;28;20949;-71
2022/01/12 05:17:22;;;;;;;;;;;-3.50;99.90;;;;;;2100067;28;19982;-71
2022/01/12 05:18:23;;;;;;;;;;;-3.50;99.90;;;;;;2098707;28;19954;-71
2022/01/12 05:19:23;;;;;;;;;;;-3.60;99.90;;;;;;2090686;28;19928;-71
2022/01/12 05:20:24;;;;;;;;;;;-3.60;99.90;;;;;;2091151;28;19927;-71
2022/01/12 05:21:24;;;;;;;;;;;-3.70;99.90;;;;;;2089502;28;19912;-71
2022/01/12 05:22:25;;;;;;;;;;;-3.80;99.90;;;;;;2089400;28;20373;-71
2022/01/12 05:23:26;;;;;;;;;;;-3.70;99.90;;;;;;2089461;28;19983;-71
2022/01/12 05:24:26;;;;;;;;;;;-3.70;99.90;;;;;;2097605;28;19905;-71
2022/01/12 05:25:27;;;;;;;;;;;-3.80;99.90;;;;;;2097530;28;19913;-72
2022/01/12 05:26:27;;;;;;;;;;;-3.80;99.90;;;;;;2097722;28;19919;-71
2022/01/12 05:27:28;;;;;;;;;;;-3.80;99.90;;;;;;2106055;28;19912;-71
2022/01/12 05:28:29;;;;;;;;;;;-3.80;99.90;;;;;;2089926;28;19928;-71
2022/01/12 05:29:30;;;;;;;;;;;-3.80;99.90;;;;;;2090007;28;19912;-71
2022/01/12 05:30:30;;;;;;;;;;;-3.70;99.90;;;;;;2089908;28;19913;-71
2022/01/12 05:31:31;;;;;;;;;;;-4.00;99.90;;;;;;2090028;28;19956;-71
2022/01/12 05:32:31;;;;;;;;;;;-4.20;99.90;;;;;;2089939;28;19912;-71
2022/01/12 05:33:32;;;;;;;;;;;-4.20;99.90;;;;;;2089447;28;19913;-71
2022/01/12 05:34:36;;;;;;;;;;;-4.10;99.90;;;;;;2081003;28;20104;-71
2022/01/12 05:35:36;;;;;;;;;;;-4.00;99.90;;;;;;2097800;28;19920;-71
2022/01/12 05:36:37;;;;;;;;;;;-4.00;99.90;;;;;;2097200;28;20459;-71
2022/01/12 05:37:39;;;;;;;;;;;-3.90;99.90;;;;;;2097650;28;19949;-71
2022/01/12 05:38:39;;;;;;;;;;;-3.90;99.90;;;;;;2097413;28;20005;-71
2022/01/12 05:39:40;;;;;;;;;;;-3.80;99.90;;;;;;2089014;28;19931;-71
2022/01/12 05:40:45;;;;;;;;;;;-3.80;99.90;;;;;;2089892;28;19904;-71
2022/01/12 05:41:45;;;;;;;;;;;-3.70;99.90;;;;;;2090380;28;19912;-72
2022/01/12 05:42:46;;;;;;;;;;;-3.70;99.90;;;;;;2106114;28;20470;-71
2022/01/12 05:43:47;;;;;;;;;;;-3.60;99.90;;;;;;2106381;28;19910;-71
2022/01/12 05:44:47;;;;;;;;;;;-3.50;99.90;;;;;;2089665;28;19905;-71
2022/01/12 05:45:48;;;;;;;;;;;-3.60;99.90;;;;;;2089881;28;20279;-71
2022/01/12 05:46:48;;;;;;;;;;;-3.60;99.90;;;;;;2089744;28;19938;-71
2022/01/12 05:50:13;;;;;;;;;;;-3.70;99.90;;;;;;2084024;28;19917;-71
2022/01/12 05:51:13;;;;;;;;;;;-3.70;99.90;;;;;;2075349;28;19912;-71
2022/01/12 05:52:19;;;;;;;;;;;-3.90;99.90;;;;;;2072742;28;19917;-71
2022/01/12 05:53:20;;;;;;;;;;;-4.20;99.90;;;;;;2081708;28;19919;-71
2022/01/12 05:54:20;;;;;;;;;;;-4.20;99.90;;;;;;2089322;28;20387;-71
2022/01/12 05:55:21;;;;;;;;;;;-4.30;99.90;;;;;;2089654;28;19919;-71
2022/01/12 05:56:22;;;;;;;;;;;-4.20;99.90;;;;;;2089222;28;20315;-71
2022/01/12 05:57:22;;;;;;;;;;;-4.20;99.90;;;;;;2089167;28;19920;-71
2022/01/12 05:58:23;;;;;;;;;;;-4.10;99.90;;;;;;2089321;28;19924;-71
2022/01/12 05:59:23;;;;;;;;;;;-4.00;99.90;;;;;;2081019;28;19913;-71
2022/01/12 06:00:26;;;;;;;;;;;-4.10;99.90;;;;;;2089276;28;19905;-71
2022/01/12 06:01:26;;;;;;;;;;;-4.00;99.90;;;;;;2089328;28;20110;-71
2022/01/12 06:02:27;;;;;;;;;;;-3.90;99.90;;;;;;2089098;28;20395;-71
2022/01/12 06:03:28;;;;;;;;;;;-3.90;99.90;;;;;;2081014;28;20399;-71
2022/01/12 06:04:28;;;;;;;;;;;-3.90;99.90;;;;;;2089246;28;19909;-71
2022/01/12 06:05:29;;;;;;;;;;;-3.80;99.90;;;;;;2089790;28;19927;-71
2022/01/12 06:06:29;;;;;;;;;;;-3.70;99.90;;;;;;2089793;28;19913;-70
2022/01/12 06:07:30;;;;;;;;;;;-3.70;99.90;;;;;;2089705;28;20391;-71
2022/01/12 06:08:31;;;;;;;;;;;-3.70;99.90;;;;;;2089787;28;19936;-71
2022/01/12 06:09:31;;;;;;;;;;;-3.70;99.90;;;;;;2089752;28;19905;-71
2022/01/12 06:10:32;;;;;;;;;;;-3.70;99.90;;;;;;2089969;28;19905;-70
2022/01/12 06:11:33;;;;;;;;;;;-3.90;99.90;;;;;;2089803;28;19905;-71
2022/01/12 06:12:33;;;;;;;;;;;-4.00;99.90;;;;;;2089697;28;19953;-70
2022/01/12 06:13:34;;;;;;;;;;;-4.00;99.90;;;;;;2089944;28;19905;-71
2022/01/12 06:14:34;;;;;;;;;;;-3.90;99.90;;;;;;2097310;28;20276;-71
2022/01/12 06:15:35;;;;;;;;;;;-3.90;99.90;;;;;;2097547;28;20040;-71
2022/01/12 06:16:36;;;;;;;;;;;-3.90;99.90;;;;;;2089033;28;19905;-71
2022/01/12 06:17:37;;;;;;;;;;;-4.00;99.90;;;;;;2089200;28;19951;-71
2022/01/12 06:18:38;;;;;;;;;;;-3.90;99.90;;;;;;2089655;28;19971;-71
2022/01/12 06:19:39;;;;;;;;;;;-3.90;99.90;;;;;;2089249;28;20384;-71
2022/01/12 06:20:39;;;;;;;;;;;-3.90;99.90;;;;;;2080957;28;19905;-71
2022/01/12 06:21:40;;;;;;;;;;;-3.90;99.90;;;;;;2080899;28;19909;-71
2022/01/12 06:22:41;;;;;;;;;;;-3.90;99.90;;;;;;2089067;28;20360;-71
2022/01/12 06:23:41;;;;;;;;;;;-3.80;99.90;;;;;;2089153;28;20473;-71
2022/01/12 06:24:42;;;;;;;;;;;-3.80;99.90;;;;;;2089067;28;20011;-71
2022/01/12 06:25:42;;;;;;;;;;;-3.80;99.90;;;;;;2089870;28;19912;-71
2022/01/12 06:26:44;;;;;;;;;;;-3.80;99.90;;;;;;2089068;28;19905;-71
2022/01/12 06:27:57;;;;;;;;;;;-3.80;99.90;;;;;;2089320;28;19909;-70
2022/01/12 06:29:40;;;;;;;;;;;-3.80;99.90;;;;;;2089119;28;19967;-71
2022/01/12 06:31:26;;;;;;;;;;;-3.80;99.90;;;;;;2089304;28;20460;-70
2022/01/12 06:32:27;;;;;;;;;;;-3.80;99.90;;;;;;2089115;28;19905;-71
2022/01/12 06:33:28;;;;;;;;;;;-3.80;99.90;;;;;;2089773;28;19912;-71
2022/01/12 06:34:28;;;;;;;;;;;-3.70;99.90;;;;;;2089764;28;19911;-71
2022/01/12 06:35:29;;;;;;;;;;;-3.70;99.90;;;;;;2089030;28;20392;-71
2022/01/12 06:36:29;;;;;;;;;;;-3.70;99.90;;;;;;2089241;28;19913;-71
2022/01/12 06:37:30;;;;;;;;;;;-3.80;99.90;;;;;;2089665;28;19912;-71
2022/01/12 06:38:31;;;;;;;;;;;-3.80;99.90;;;;;;2089670;28;19921;-71
2022/01/12 06:39:31;;;;;;;;;;;-3.80;99.90;;;;;;2089576;28;19939;-71
2022/01/12 06:40:32;;;;;;;;;;;-3.80;99.90;;;;;;2089723;28;19916;-71
2022/01/12 06:41:32;;;;;;;;;;;-3.80;99.90;;;;;;2089658;28;19952;-71
2022/01/12 06:42:33;;;;;;;;;;;-3.80;99.90;;;;;;2085643;28;20277;-71
2022/01/12 06:43:34;;;;;;;;;;;-3.90;99.90;;;;;;2090037;28;19913;-70
2022/01/12 06:44:35;;;;;;;;;;;-3.90;99.90;;;;;;2095408;28;19920;-71
2022/01/12 06:45:36;;;;;;;;;;;-3.90;99.90;;;;;;2082181;28;20288;-71
2022/01/12 06:46:36;;;;;;;;;;;-3.90;99.90;;;;;;2088928;28;20003;-71
2022/01/12 06:47:37;;;;;;;;;;;-3.90;99.90;;;;;;2088880;28;20335;-71
2022/01/12 06:48:38;;;;;;;;;;;-3.80;99.90;;;;;;2089007;28;19912;-71
2022/01/12 06:49:38;;;;;;;;;;;-3.80;99.90;;;;;;2089010;28;20383;-71
2022/01/12 06:50:39;;;;;;;;;;;-3.80;99.90;;;;;;2105648;28;19919;-71
2022/01/12 06:51:40;;;;;;;;;;;-3.80;99.90;;;;;;2105583;28;19912;-71
2022/01/12 06:52:40;;;;;;;;;;;-3.90;99.90;;;;;;2089585;28;20295;-71
2022/01/12 06:53:41;;;;;;;;;;;-3.90;99.90;;;;;;2105359;28;19919;-71
2022/01/12 06:54:41;;;;;;;;;;;-3.90;99.90;;;;;;2097024;28;19912;-71
2022/01/12 06:55:42;;;;;;;;;;;-3.90;99.90;;;;;;2088832;28;19952;-70
2022/01/12 06:56:42;;;;;;;;;;;-3.90;99.90;;;;;;2089545;28;20288;-71
2022/01/12 06:57:43;;;;;;;;;;;-3.90;99.90;;;;;;2088930;28;20434;-71
2022/01/12 06:58:44;;;;;;;;;;;-3.90;99.90;;;;;;2089019;28;19921;-71
2022/01/12 06:59:44;;;;;;;;;;;-3.90;99.90;;;;;;2088915;28;20453;-71
2022/01/12 07:00:45;;;;;;;;;;;-3.90;99.90;;;;;;2080757;28;19948;-71
2022/01/12 07:01:46;;;;;;;;;;;-4.00;99.90;;;;;;2088908;28;19913;-71
2022/01/12 07:02:47;;;;;;;;;;;-4.10;99.90;;;;;;2089557;28;19913;-71
2022/01/12 07:03:48;;;;;;;;;;;-4.10;99.90;;;;;;2089538;28;19920;-71
2022/01/12 07:04:49;;;;;;;;;;;-4.10;99.90;;;;;;2088727;28;19998;-71
2022/01/12 07:05:49;;;;;;;;;;;-4.10;99.90;;;;;;2080664;28;19905;-71
2022/01/12 07:06:50;;;;;;;;;;;-4.10;99.90;;;;;;2088863;28;19919;-71
2022/01/12 07:07:51;;;;;;;;;;;-4.10;99.90;;;;;;2088962;28;19905;-71
2022/01/12 07:08:52;;;;;;;;;;;-4.20;99.90;;;;;;2089106;28;20322;-71
2022/01/12 07:09:53;;;;;;;;;;;-4.20;99.90;;;;;;2089585;28;20360;-71
2022/01/12 07:10:53;;;;;;;;;;;-4.20;99.90;;;;;;2089024;28;19913;-71
2022/01/12 07:11:54;;;;;;;;;;;-4.10;99.90;;;;;;2089023;28;20465;-71
2022/01/12 07:12:54;;;;;;;;;;;-4.30;99.90;;;;;;2088865;28;19960;-71
2022/01/12 07:13:55;;;;;;;;;;;-4.30;99.90;;;;;;2090328;28;19905;-71
2022/01/12 07:14:56;;;;;;;;;;;-4.40;99.90;;;;;;2090537;28;19913;-71